createdAt,value
2018-12-09T00:01:26.139Z,94696.88
2018-12-09T00:03:52.119Z,94698.66
2018-12-09T00:06:18.120Z,94703.19
2018-12-09T00:08:44.126Z,94708.86
2018-12-09T00:11:10.112Z,94710.06
2018-12-09T00:13:36.086Z,94706.14
2018-12-09T00:16:02.081Z,94704.60
2018-12-09T00:18:28.059Z,94708.28
2018-12-09T00:20:54.060Z,94708.12
2018-12-09T00:23:20.048Z,94706.75
2018-12-09T00:25:46.028Z,94705.53
2018-12-09T00:28:12.013Z,94705.70
2018-12-09T00:30:38.028Z,94704.97
2018-12-09T00:33:04.011Z,94705.33
2018-12-09T00:35:29.994Z,94705.74
2018-12-09T00:37:55.993Z,94705.58
2018-12-09T00:40:21.972Z,94705.38
2018-12-09T00:42:47.945Z,94701.54
2018-12-09T00:45:13.939Z,94708.21
2018-12-09T00:47:39.926Z,94708.17
2018-12-09T00:50:05.926Z,94706.19
2018-12-09T00:52:31.899Z,94698.31
2018-12-09T00:54:57.895Z,94705.59
2018-12-09T00:57:23.888Z,94708.94
2018-12-09T00:59:49.880Z,94701.23
2018-12-09T01:02:15.862Z,94701.27
2018-12-09T01:04:41.855Z,94697.91
2018-12-09T01:07:07.832Z,94694.75
2018-12-09T01:09:33.824Z,94693.02
2018-12-09T01:11:59.814Z,94691.03
2018-12-09T01:14:25.783Z,94696.70
2018-12-09T01:16:51.817Z,94690.67
2018-12-09T01:19:17.799Z,94692.41
2018-12-09T01:21:43.774Z,94694.35
2018-12-09T01:24:09.783Z,94696.91
2018-12-09T01:26:35.767Z,94695.16
2018-12-09T01:29:01.743Z,94694.52
2018-12-09T01:31:27.730Z,94695.16
2018-12-09T01:33:53.730Z,94694.39
2018-12-09T01:36:19.712Z,94690.83
2018-12-09T01:38:45.701Z,94688.45
2018-12-09T01:41:11.685Z,94687.28
2018-12-09T01:43:37.661Z,94695.16
2018-12-09T01:46:03.632Z,94690.95
2018-12-09T01:48:29.627Z,94692.61
2018-12-09T01:50:55.618Z,94686.70
2018-12-09T01:53:21.637Z,94688.89
2018-12-09T01:55:47.630Z,94688.89
2018-12-09T01:58:13.608Z,94686.67
2018-12-09T02:00:39.593Z,94682.95
2018-12-09T02:03:05.593Z,94675.38
2018-12-09T02:05:31.573Z,94677.92
2018-12-09T02:07:57.555Z,94680.07
2018-12-09T02:10:23.524Z,94675.31
2018-12-09T02:12:49.559Z,94681.45
2018-12-09T02:15:15.526Z,94681.17
2018-12-09T02:17:41.563Z,94678.26
2018-12-09T02:20:07.545Z,94687.68
2018-12-09T02:22:33.531Z,94681.48
2018-12-09T02:24:59.496Z,94686.91
2018-12-09T02:27:25.484Z,94690.43
2018-12-09T02:29:51.468Z,94688.32
2018-12-09T02:32:17.445Z,94684.40
2018-12-09T02:34:43.435Z,94692.25
2018-12-09T02:37:09.425Z,94692.85
2018-12-09T02:39:35.393Z,94690.88
2018-12-09T02:42:01.408Z,94687.68
2018-12-09T02:44:28.152Z,94688.28
2018-12-09T02:46:53.370Z,94677.12
2018-12-09T02:49:19.351Z,94680.27
2018-12-09T02:51:45.407Z,94681.17
2018-12-09T02:54:11.389Z,94680.97
2018-12-09T02:56:37.385Z,94679.27
2018-12-09T02:59:03.411Z,94681.41
2018-12-09T03:01:29.396Z,94675.34
2018-12-09T03:03:55.366Z,94675.70
2018-12-09T03:06:21.395Z,94681.45
2018-12-09T03:08:47.367Z,94676.92
2018-12-09T03:11:13.351Z,94677.28
2018-12-09T03:13:39.338Z,94670.75
2018-12-09T03:16:05.318Z,94674.27
2018-12-09T03:18:31.295Z,94678.22
2018-12-09T03:20:57.286Z,94674.73
2018-12-09T03:23:23.271Z,94676.15
2018-12-09T03:25:49.273Z,94681.41
2018-12-09T03:28:15.243Z,94682.74
2018-12-09T03:30:41.245Z,94683.16
2018-12-09T03:33:07.222Z,94683.11
2018-12-09T03:35:33.237Z,94676.28
2018-12-09T03:37:59.225Z,94678.09
2018-12-09T03:40:25.207Z,94677.69
2018-12-09T03:42:51.196Z,94680.07
2018-12-09T03:45:17.197Z,94684.56
2018-12-09T03:47:43.190Z,94681.41
2018-12-09T03:50:09.180Z,94682.14
2018-12-09T03:52:35.163Z,94684.48
2018-12-09T03:55:01.152Z,94685.91
2018-12-09T03:57:27.148Z,94678.70
2018-12-09T03:59:53.158Z,94686.10
2018-12-09T04:02:19.148Z,94688.13
2018-12-09T04:04:45.127Z,94685.73
2018-12-09T04:07:11.098Z,94688.89
2018-12-09T04:09:37.089Z,94678.02
2018-12-09T04:12:03.085Z,94679.23
2018-12-09T04:14:29.090Z,94678.70
2018-12-09T04:16:55.075Z,94678.02
2018-12-09T04:19:21.072Z,94681.45
2018-12-09T04:21:47.127Z,94676.48
2018-12-09T04:24:13.082Z,94680.60
2018-12-09T04:26:39.061Z,94673.73
2018-12-09T04:29:05.069Z,94680.84
2018-12-09T04:31:31.042Z,94679.27
2018-12-09T04:33:57.040Z,94678.26
2018-12-09T04:36:23.027Z,94679.83
2018-12-09T04:38:49.006Z,94684.33
2018-12-09T04:41:14.989Z,94688.52
2018-12-09T04:43:40.992Z,94683.95
2018-12-09T04:46:07.014Z,94680.64
2018-12-09T04:48:32.987Z,94676.48
2018-12-09T04:50:58.970Z,94675.31
2018-12-09T04:53:24.962Z,94667.06
2018-12-09T04:55:50.934Z,94667.86
2018-12-09T04:58:16.927Z,94665.76
2018-12-09T05:00:42.904Z,94658.20
2018-12-09T05:03:08.892Z,94667.70
2018-12-09T05:05:34.864Z,94668.88
2018-12-09T05:08:00.865Z,94665.16
2018-12-09T05:10:26.843Z,94663.38
2018-12-09T05:12:52.842Z,94658.81
2018-12-09T05:15:18.825Z,94663.58
2018-12-09T05:17:44.804Z,94661.12
2018-12-09T05:20:10.772Z,94663.34
2018-12-09T05:22:36.774Z,94665.88
2018-12-09T05:25:02.748Z,94662.80
2018-12-09T05:27:28.735Z,94667.33
2018-12-09T05:29:54.728Z,94670.25
2018-12-09T05:32:20.717Z,94671.42
2018-12-09T05:34:46.693Z,94676.08
2018-12-09T05:37:12.693Z,94678.02
2018-12-09T05:39:38.676Z,94683.56
2018-12-09T05:42:04.657Z,94689.09
2018-12-09T05:44:30.627Z,94691.34
2018-12-09T05:46:56.629Z,94692.59
2018-12-09T05:49:22.617Z,94689.31
2018-12-09T05:51:48.606Z,94690.13
2018-12-09T05:54:14.605Z,94699.38
2018-12-09T05:56:40.582Z,94698.94
2018-12-09T05:59:06.563Z,94695.14
2018-12-09T06:01:32.557Z,94693.31
2018-12-09T06:03:58.593Z,94691.94
2018-12-09T06:06:24.534Z,94695.45
2018-12-09T06:08:50.524Z,94689.69
2018-12-09T06:11:16.544Z,94695.02
2018-12-09T06:13:42.515Z,94686.80
2018-12-09T06:16:08.523Z,94684.86
2018-12-09T06:18:34.511Z,94680.13
2018-12-09T06:21:00.508Z,94672.85
2018-12-09T06:23:26.484Z,94674.06
2018-12-09T06:25:52.481Z,94679.02
2018-12-09T06:28:18.445Z,94668.09
2018-12-09T06:30:44.552Z,94660.53
2018-12-09T06:33:10.474Z,94669.83
2018-12-09T06:35:36.494Z,94671.23
2018-12-09T06:38:02.462Z,94671.56
2018-12-09T06:40:28.462Z,94670.77
2018-12-09T06:42:54.450Z,94671.93
2018-12-09T06:45:20.431Z,94670.77
2018-12-09T06:47:46.425Z,94663.28
2018-12-09T06:50:12.430Z,94662.84
2018-12-09T06:52:38.403Z,94673.64
2018-12-09T06:55:04.407Z,94672.17
2018-12-09T06:57:30.391Z,94667.84
2018-12-09T06:59:56.375Z,94661.70
2018-12-09T07:02:22.361Z,94665.30
2018-12-09T07:04:48.363Z,94671.00
2018-12-09T07:07:14.333Z,94658.66
2018-12-09T07:09:40.332Z,94662.59
2018-12-09T07:12:06.307Z,94656.69
2018-12-09T07:14:32.293Z,94669.46
2018-12-09T07:16:58.277Z,94671.00
2018-12-09T07:19:24.267Z,94673.45
2018-12-09T07:21:50.252Z,94671.48
2018-12-09T07:24:16.249Z,94666.37
2018-12-09T07:26:42.220Z,94675.27
2018-12-09T07:29:08.206Z,94669.36
2018-12-09T07:31:34.183Z,94669.36
2018-12-09T07:34:00.185Z,94663.90
2018-12-09T07:36:26.180Z,94662.89
2018-12-09T07:38:52.171Z,94660.88
2018-12-09T07:41:18.154Z,94658.00
2018-12-09T07:43:44.158Z,94651.48
2018-12-09T07:46:10.119Z,94644.81
2018-12-09T07:48:36.126Z,94644.05
2018-12-09T07:51:02.118Z,94643.87
2018-12-09T07:53:28.102Z,94649.38
2018-12-09T07:55:54.125Z,94645.45
2018-12-09T07:58:20.282Z,94646.59
2018-12-09T08:00:46.299Z,94640.09
2018-12-09T08:03:12.274Z,94646.89
2018-12-09T08:05:38.259Z,94634.92
2018-12-09T08:08:04.249Z,94630.80
2018-12-09T08:10:30.229Z,94625.90
2018-12-09T08:12:56.236Z,94635.12
2018-12-09T08:15:22.264Z,94630.42
2018-12-09T08:17:48.252Z,94630.59
2018-12-09T08:20:14.229Z,94631.44
2018-12-09T08:22:40.265Z,94628.44
2018-12-09T08:25:06.225Z,94631.23
2018-12-09T08:27:32.307Z,94629.82
2018-12-09T08:29:58.428Z,94631.56
2018-12-09T08:32:24.407Z,94627.23
2018-12-09T08:34:50.393Z,94627.64
2018-12-09T08:37:16.410Z,94622.14
2018-12-09T08:39:42.393Z,94618.41
2018-12-09T08:42:08.408Z,94610.17
2018-12-09T08:44:34.390Z,94616.44
2018-12-09T08:47:00.375Z,94622.30
2018-12-09T08:49:26.358Z,94616.64
2018-12-09T08:51:52.351Z,94615.63
2018-12-09T08:54:18.348Z,94619.55
2018-12-09T08:56:44.322Z,94620.73
2018-12-09T08:59:10.301Z,94636.66
2018-12-09T09:01:36.293Z,94631.49
2018-12-09T09:04:02.286Z,94625.80
2018-12-09T09:06:28.306Z,94615.00
2018-12-09T09:08:54.300Z,94616.61
2018-12-09T09:11:20.295Z,94603.83
2018-12-09T09:13:46.261Z,94591.28
2018-12-09T09:16:12.249Z,94584.18
2018-12-09T09:18:38.278Z,94576.73
2018-12-09T09:21:04.262Z,94574.55
2018-12-09T09:23:30.257Z,94577.34
2018-12-09T09:25:56.383Z,94573.41
2018-12-09T09:28:22.396Z,94569.66
2018-12-09T09:30:48.526Z,94578.91
2018-12-09T09:33:14.528Z,94573.21
2018-12-09T09:35:40.492Z,94580.92
2018-12-09T09:38:06.608Z,94580.35
2018-12-09T09:40:32.589Z,94575.45
2018-12-09T09:42:58.582Z,94568.02
2018-12-09T09:45:24.571Z,94580.19
2018-12-09T09:47:50.590Z,94575.63
2018-12-09T09:50:16.563Z,94568.22
2018-12-09T09:52:42.557Z,94571.94
2018-12-09T09:55:08.606Z,94565.33
2018-12-09T09:57:34.607Z,94557.74
2018-12-09T10:00:00.579Z,94561.33
2018-12-09T10:02:26.579Z,94552.31
2018-12-09T10:04:52.557Z,94558.14
2018-12-09T10:07:18.542Z,94547.22
2018-12-09T10:09:44.524Z,94540.06
2018-12-09T10:12:10.560Z,94537.75
2018-12-09T10:14:36.529Z,94542.51
2018-12-09T10:17:02.590Z,94543.77
2018-12-09T10:19:28.605Z,94542.25
2018-12-09T10:21:54.591Z,94544.92
2018-12-09T10:24:20.822Z,94548.56
2018-12-09T10:26:49.122Z,94537.35
2018-12-09T10:29:15.096Z,94529.59
2018-12-09T10:31:41.078Z,94531.39
2018-12-09T10:34:07.093Z,94531.20
2018-12-09T10:36:33.076Z,94526.95
2018-12-09T10:38:59.072Z,94525.45
2018-12-09T10:41:25.090Z,94527.61
2018-12-09T10:43:51.070Z,94530.81
2018-12-09T10:46:17.110Z,94526.66
2018-12-09T10:48:43.094Z,94519.58
2018-12-09T10:51:09.097Z,94515.82
2018-12-09T10:53:35.075Z,94519.09
2018-12-09T10:56:01.148Z,94511.86
2018-12-09T10:58:27.160Z,94494.34
2018-12-09T11:00:53.389Z,94493.55
2018-12-09T11:03:19.382Z,94497.73
2018-12-09T11:05:45.383Z,94500.08
2018-12-09T11:08:11.355Z,94499.85
2018-12-09T11:10:37.347Z,94489.79
2018-12-09T11:13:03.332Z,94484.14
2018-12-09T11:15:29.456Z,94480.84
2018-12-09T11:17:55.573Z,94487.12
2018-12-09T11:20:21.568Z,94478.63
2018-12-09T11:22:47.588Z,94469.63
2018-12-09T11:25:13.582Z,94468.08
2018-12-09T11:27:39.558Z,94460.99
2018-12-09T11:30:05.577Z,94458.88
2018-12-09T11:32:32.298Z,94450.76
2018-12-09T11:34:58.350Z,94449.19
2018-12-09T11:37:24.506Z,94449.00
2018-12-09T11:39:50.616Z,94447.63
2018-12-09T11:42:16.621Z,94446.45
2018-12-09T11:44:42.628Z,94442.33
2018-12-09T11:50:09.626Z,94440.90
2018-12-09T11:52:36.967Z,94432.81
2018-12-09T11:55:03.078Z,94431.27
2018-12-09T11:57:29.093Z,94434.42
2018-12-09T11:59:55.097Z,94438.32
2018-12-09T12:02:21.395Z,94443.17
2018-12-09T12:04:47.381Z,94447.08
2018-12-09T12:07:13.434Z,94448.66
2018-12-09T12:09:39.568Z,94444.27
2018-12-09T12:12:05.710Z,94437.28
2018-12-09T12:14:31.707Z,94436.45
2018-12-09T12:16:57.707Z,94427.00
2018-12-09T12:19:23.738Z,94430.72
2018-12-09T12:21:49.732Z,94426.02
2018-12-09T12:24:15.739Z,94421.23
2018-12-09T12:26:41.712Z,94424.99
2018-12-09T12:29:07.712Z,94424.31
2018-12-09T12:31:33.702Z,94411.70
2018-12-09T12:33:59.704Z,94409.73
2018-12-09T12:36:25.698Z,94407.55
2018-12-09T12:38:52.445Z,94409.27
2018-12-09T12:41:18.430Z,94405.48
2018-12-09T12:43:44.426Z,94399.78
2018-12-09T12:46:10.416Z,94406.99
2018-12-09T12:48:36.420Z,94406.56
2018-12-09T12:51:02.463Z,94408.72
2018-12-09T12:53:28.459Z,94411.27
2018-12-09T12:55:54.494Z,94410.70
2018-12-09T12:58:20.492Z,94414.84
2018-12-09T13:00:46.499Z,94406.42
2018-12-09T13:03:12.632Z,94405.79
2018-12-09T13:05:40.633Z,94403.16
2018-12-09T13:08:06.616Z,94400.48
2018-12-09T13:10:32.612Z,94391.27
2018-12-09T13:12:58.906Z,94390.22
2018-12-09T13:15:24.885Z,94378.95
2018-12-09T13:17:50.883Z,94378.86
2018-12-09T13:20:16.934Z,94388.25
2018-12-09T13:22:42.987Z,94383.34
2018-12-09T13:25:08.978Z,94374.46
2018-12-09T13:27:35.003Z,94377.36
2018-12-09T13:30:01.017Z,94384.63
2018-12-09T13:32:27.065Z,94381.84
2018-12-09T13:34:53.086Z,94383.77
2018-12-09T13:37:19.327Z,94383.58
2018-12-09T13:39:45.318Z,94379.74
2018-12-09T13:42:11.704Z,94327.23
2018-12-09T13:44:37.714Z,94330.76
2018-12-09T13:47:03.767Z,94330.91
2018-12-09T13:49:29.852Z,94374.73
2018-12-09T13:51:55.891Z,94372.16
2018-12-09T13:54:21.877Z,94372.96
2018-12-09T13:56:47.886Z,94366.84
2018-12-09T13:59:14.138Z,94373.09
2018-12-09T14:01:40.117Z,94371.11
2018-12-09T14:04:06.253Z,94364.83
2018-12-09T14:06:32.298Z,94354.83
2018-12-09T14:08:58.281Z,94359.73
2018-12-09T14:11:24.387Z,94350.88
2018-12-09T14:13:50.426Z,94359.70
2018-12-09T14:16:16.702Z,94362.25
2018-12-09T14:18:42.687Z,94355.97
2018-12-09T14:21:08.729Z,94360.67
2018-12-09T14:23:34.716Z,94362.43
2018-12-09T14:26:00.691Z,94364.18
2018-12-09T14:28:26.705Z,94362.80
2018-12-09T14:30:52.712Z,94359.45
2018-12-09T14:33:18.690Z,94358.70
2018-12-09T14:35:44.724Z,94354.55
2018-12-09T14:38:10.712Z,94357.16
2018-12-09T14:40:36.719Z,94351.66
2018-12-09T14:43:02.710Z,94346.13
2018-12-09T14:45:28.701Z,94341.37
2018-12-09T14:47:54.730Z,94335.14
2018-12-09T14:50:20.727Z,94337.73
2018-12-09T14:52:46.708Z,94325.03
2018-12-09T14:55:12.724Z,94330.31
2018-12-09T14:57:38.700Z,94337.42
2018-12-09T15:00:04.741Z,94327.56
2018-12-09T15:02:30.721Z,94331.69
2018-12-09T15:04:56.740Z,94318.30
2018-12-09T15:07:22.704Z,94323.98
2018-12-09T15:09:48.787Z,94317.73
2018-12-09T15:12:14.791Z,94322.66
2018-12-09T15:14:40.766Z,94321.40
2018-12-09T15:17:06.773Z,94319.50
2018-12-09T15:19:32.782Z,94325.91
2018-12-09T15:21:58.770Z,94324.70
2018-12-09T15:24:24.807Z,94324.84
2018-12-09T15:26:53.063Z,94319.00
2018-12-09T15:29:19.072Z,94327.78
2018-12-09T15:31:45.113Z,94317.80
2018-12-09T15:34:11.164Z,94318.77
2018-12-09T15:36:37.147Z,94310.20
2018-12-09T15:39:03.125Z,94304.59
2018-12-09T15:41:29.147Z,94303.39
2018-12-09T15:43:55.149Z,94306.95
2018-12-09T15:46:21.137Z,94308.27
2018-12-09T15:48:47.126Z,94307.56
2018-12-09T15:51:13.135Z,94304.81
2018-12-09T15:53:39.163Z,94315.25
2018-12-09T15:56:05.145Z,94323.48
2018-12-09T15:58:31.150Z,94323.26
2018-12-09T16:00:57.133Z,94322.28
2018-12-09T16:03:23.116Z,94327.36
2018-12-09T16:05:49.103Z,94329.73
2018-12-09T16:08:15.106Z,94320.88
2018-12-09T16:10:41.075Z,94323.26
2018-12-09T16:13:07.103Z,94326.18
2018-12-09T16:15:33.083Z,94324.00
2018-12-09T16:17:59.105Z,94327.56
2018-12-09T16:20:25.218Z,94327.53
2018-12-09T16:22:51.267Z,94326.11
2018-12-09T16:25:17.241Z,94331.55
2018-12-09T16:27:43.231Z,94327.41
2018-12-09T16:30:09.293Z,94322.09
2018-12-09T16:32:35.294Z,94316.56
2018-12-09T16:35:01.273Z,94311.84
2018-12-09T16:37:27.278Z,94302.39
2018-12-09T16:39:53.283Z,94309.20
2018-12-09T16:42:19.421Z,94311.84
2018-12-09T16:44:45.441Z,94312.38
2018-12-09T16:47:11.444Z,94311.61
2018-12-09T16:49:37.426Z,94306.36
2018-12-09T16:52:03.432Z,94311.45
2018-12-09T16:54:29.418Z,94319.36
2018-12-09T16:56:55.401Z,94320.20
2018-12-09T16:59:21.385Z,94329.31
2018-12-09T17:01:47.391Z,94339.02
2018-12-09T17:04:13.380Z,94339.32
2018-12-09T17:06:48.946Z,94352.20
2018-12-09T17:09:16.833Z,94340.74
2018-12-09T17:11:43.177Z,94338.98
2018-12-09T17:14:09.474Z,94331.84
2018-12-09T17:16:35.479Z,94339.84
2018-12-09T17:19:01.455Z,94341.07
2018-12-09T17:21:27.634Z,94335.84
2018-12-09T17:23:53.493Z,94335.81
2018-12-09T17:26:19.504Z,94339.59
2018-12-09T17:28:45.492Z,94339.55
2018-12-09T17:31:11.499Z,94338.56
2018-12-09T17:33:37.525Z,94346.70
2018-12-09T17:36:03.553Z,94340.95
2018-12-09T17:38:29.554Z,94346.63
2018-12-09T17:40:55.574Z,94343.57
2018-12-09T17:43:21.754Z,94351.25
2018-12-09T17:45:47.744Z,94348.77
2018-12-09T17:48:13.903Z,94344.83
2018-12-09T17:50:40.017Z,94341.41
2018-12-09T17:53:06.357Z,94345.99
2018-12-09T17:55:32.356Z,94352.90
2018-12-09T17:57:58.344Z,94351.90
2018-12-09T18:00:24.734Z,94347.80
2018-12-09T18:02:50.718Z,94336.99
2018-12-09T18:05:17.105Z,94349.97
2018-12-09T18:07:43.218Z,94341.52
2018-12-09T18:10:09.357Z,94349.35
2018-12-09T18:12:35.454Z,94347.39
2018-12-09T18:15:01.429Z,94346.25
2018-12-09T18:17:27.418Z,94342.09
2018-12-09T18:19:53.459Z,94337.14
2018-12-09T18:22:19.435Z,94340.74
2018-12-09T18:24:45.426Z,94338.55
2018-12-09T18:27:11.465Z,94340.48
2018-12-09T18:29:37.455Z,94343.66
2018-12-09T18:32:03.448Z,94342.73
2018-12-09T18:34:29.458Z,94342.59
2018-12-09T18:36:55.482Z,94341.98
2018-12-09T18:39:21.486Z,94350.70
2018-12-09T18:41:47.507Z,94342.99
2018-12-09T18:44:13.527Z,94336.09
2018-12-09T18:46:39.508Z,94329.28
2018-12-09T18:49:05.520Z,94334.84
2018-12-09T18:51:31.485Z,94327.75
2018-12-09T18:53:57.486Z,94319.27
2018-12-09T18:56:23.480Z,94334.19
2018-12-09T18:58:49.535Z,94333.36
2018-12-09T19:01:15.525Z,94326.41
2018-12-09T19:03:41.510Z,94324.26
2018-12-09T19:06:07.584Z,94321.48
2018-12-09T19:08:33.566Z,94332.91
2018-12-09T19:11:00.127Z,94335.46
2018-12-09T19:13:26.138Z,94325.53
2018-12-09T19:15:52.103Z,94325.66
2018-12-09T19:18:18.104Z,94333.31
2018-12-09T19:20:44.135Z,94327.96
2018-12-09T19:23:10.187Z,94315.08
2018-12-09T19:25:36.683Z,94314.86
2018-12-09T19:28:02.679Z,94320.31
2018-12-09T19:30:32.221Z,94326.04
2018-12-09T19:32:59.105Z,94326.61
2018-12-09T19:35:25.089Z,94332.77
2018-12-09T19:37:51.097Z,94330.39
2018-12-09T19:40:17.962Z,94338.52
2018-12-09T19:42:45.780Z,94347.80
2018-12-09T19:45:11.954Z,94343.05
2018-12-09T19:47:38.541Z,94349.09
2018-12-09T19:50:04.598Z,94349.30
2018-12-09T19:52:30.598Z,94350.92
2018-12-09T19:54:57.172Z,94342.45
2018-12-09T19:57:23.720Z,94342.74
2018-12-09T19:59:50.450Z,94347.30
2018-12-09T20:02:16.434Z,94344.02
2018-12-09T20:04:42.656Z,94345.80
2018-12-09T20:07:08.634Z,94342.02
2018-12-09T20:09:34.644Z,94342.05
2018-12-09T20:12:00.725Z,94331.61
2018-12-09T20:14:26.842Z,94331.61
2018-12-09T20:16:52.821Z,94333.41
2018-12-09T20:19:18.876Z,94329.69
2018-12-09T20:21:46.423Z,94323.38
2018-12-09T20:24:12.438Z,94309.05
2018-12-09T20:26:38.417Z,94312.80
2018-12-09T20:29:04.481Z,94313.33
2018-12-09T20:31:30.415Z,94319.06
2018-12-09T20:33:56.416Z,94312.00
2018-12-09T20:36:36.238Z,94304.50
2018-12-09T20:39:02.226Z,94301.55
2018-12-09T20:41:28.290Z,94296.84
2018-12-09T20:43:54.298Z,94289.37
2018-12-09T20:46:20.269Z,94291.74
2018-12-09T20:48:46.847Z,94289.81
2018-12-09T20:51:12.839Z,94286.28
2018-12-09T20:53:38.840Z,94295.09
2018-12-09T20:56:04.835Z,94299.44
2018-12-09T20:58:30.835Z,94298.05
2018-12-09T21:00:56.830Z,94291.74
2018-12-09T21:03:22.822Z,94293.14
2018-12-09T21:05:48.859Z,94298.64
2018-12-09T21:08:14.855Z,94309.00
2018-12-09T21:10:40.869Z,94304.27
2018-12-09T21:13:07.113Z,94300.57
2018-12-09T21:15:33.053Z,94297.16
2018-12-09T21:17:59.039Z,94301.17
2018-12-09T21:20:25.021Z,94295.16
2018-12-09T21:22:51.089Z,94303.77
2018-12-09T21:25:17.210Z,94303.34
2018-12-09T21:27:43.344Z,94305.14
2018-12-09T21:30:09.357Z,94303.12
2018-12-09T21:32:35.338Z,94305.09
2018-12-09T21:35:01.323Z,94308.84
2018-12-09T21:37:27.649Z,94312.36
2018-12-09T21:39:53.629Z,94309.83
2018-12-09T21:42:19.621Z,94309.05
2018-12-09T21:44:45.622Z,94302.77
2018-12-09T21:47:11.932Z,94300.02
2018-12-09T21:49:37.901Z,94298.73
2018-12-09T21:52:03.910Z,94301.71
2018-12-09T21:54:29.954Z,94301.29
2018-12-09T21:56:55.933Z,94299.03
2018-12-09T21:59:21.911Z,94289.67
2018-12-09T22:01:47.911Z,94299.70
2018-12-09T22:04:13.903Z,94295.47
2018-12-09T22:06:39.898Z,94298.71
2018-12-09T22:09:05.883Z,94292.19
2018-12-09T22:11:31.868Z,94293.27
2018-12-09T22:13:57.837Z,94291.72
2018-12-09T22:16:23.866Z,94288.95
2018-12-09T22:18:49.849Z,94289.33
2018-12-09T22:21:16.525Z,94306.80
2018-12-09T22:23:41.815Z,94296.58
2018-12-09T22:26:07.797Z,94289.75
2018-12-09T22:28:33.785Z,94293.05
2018-12-09T22:30:59.780Z,94289.50
2018-12-09T22:33:25.774Z,94291.25
2018-12-09T22:35:51.761Z,94295.00
2018-12-09T22:38:17.731Z,94284.75
2018-12-09T22:40:43.754Z,94283.57
2018-12-09T22:43:09.737Z,94285.33
2018-12-09T22:45:35.742Z,94295.92
2018-12-09T22:48:01.728Z,94293.98
2018-12-09T22:50:27.704Z,94291.45
2018-12-09T22:52:53.675Z,94290.23
2018-12-09T22:55:19.665Z,94283.92
2018-12-09T22:57:45.654Z,94286.70
2018-12-09T23:00:11.639Z,94280.24
2018-12-09T23:02:37.623Z,94280.98
2018-12-09T23:05:03.600Z,94274.50
2018-12-09T23:07:29.583Z,94277.42
2018-12-09T23:09:55.574Z,94272.52
2018-12-09T23:12:21.559Z,94272.20
2018-12-09T23:14:47.541Z,94269.44
2018-12-09T23:17:13.529Z,94264.45
2018-12-09T23:19:39.536Z,94271.80
2018-12-09T23:22:05.501Z,94269.37
2018-12-09T23:24:31.503Z,94270.17
2018-12-09T23:26:57.480Z,94265.05
2018-12-09T23:29:23.471Z,94261.05
2018-12-09T23:31:49.448Z,94262.08
2018-12-09T23:34:15.447Z,94259.70
2018-12-09T23:36:41.438Z,94261.32
2018-12-09T23:39:07.438Z,94251.67
2018-12-09T23:41:33.428Z,94257.99
2018-12-09T23:43:59.419Z,94252.64
2018-12-09T23:46:25.396Z,94255.38
2018-12-09T23:48:51.399Z,94253.62
2018-12-09T23:51:17.383Z,94251.82
2018-12-09T23:53:43.371Z,94253.22
2018-12-09T23:56:09.343Z,94249.89
2018-12-09T23:58:35.350Z,94244.77
